sensor_id;sensor_type;location;lat;lon;timestamp;P1;durP1;ratioP1;P2;durP2;ratioP2
13421;SDS011;6782;55.904;13.396;2023-03-01T00:02:14;11.13;;;9.17;;
13421;SDS011;6782;55.904;13.396;2023-03-01T00:05:04;11.17;;;8.90;;
13421;SDS011;6782;55.904;13.396;2023-03-01T00:07:52;11.37;;;9.73;;
13421;SDS011;6782;55.904;13.396;2023-03-01T00:10:40;11.57;;;9.50;;
13421;SDS011;6782;55.904;13.396;2023-03-01T00:13:27;11.50;;;9.43;;
13421;SDS011;6782;55.904;13.396;2023-03-01T00:16:15;12.23;;;9.73;;
13421;SDS011;6782;55.904;13.396;2023-03-01T00:19:05;12.13;;;10.07;;
13421;SDS011;6782;55.904;13.396;2023-03-01T00:21:56;14.03;;;10.33;;
13421;SDS011;6782;55.904;13.396;2023-03-01T00:24:44;15.50;;;9.77;;
13421;SDS011;6782;55.904;13.396;2023-03-01T00:27:31;10.70;;;9.30;;
13421;SDS011;6782;55.904;13.396;2023-03-01T00:30:18;12.23;;;9.50;;
13421;SDS011;6782;55.904;13.396;2023-03-01T00:33:05;10.97;;;9.33;;
13421;SDS011;6782;55.904;13.396;2023-03-01T00:35:52;13.20;;;9.97;;
13421;SDS011;6782;55.904;13.396;2023-03-01T00:38:42;11.53;;;8.77;;
13421;SDS011;6782;55.904;13.396;2023-03-01T00:41:31;13.13;;;9.90;;
13421;SDS011;6782;55.904;13.396;2023-03-01T00:44:20;10.70;;;8.63;;
13421;SDS011;6782;55.904;13.396;2023-03-01T00:47:07;11.50;;;9.17;;
13421;SDS011;6782;55.904;13.396;2023-03-01T00:49:54;11.63;;;9.73;;
13421;SDS011;6782;55.904;13.396;2023-03-01T00:52:41;12.60;;;10.50;;
13421;SDS011;6782;55.904;13.396;2023-03-01T00:55:30;12.50;;;10.10;;
13421;SDS011;6782;55.904;13.396;2023-03-01T00:58:18;13.87;;;10.60;;
13421;SDS011;6782;55.904;13.396;2023-03-01T01:01:08;12.80;;;9.90;;
13421;SDS011;6782;55.904;13.396;2023-03-01T01:04:03;13.57;;;10.60;;
13421;SDS011;6782;55.904;13.396;2023-03-01T01:06:53;13.93;;;11.03;;
13421;SDS011;6782;55.904;13.396;2023-03-01T01:09:40;16.53;;;12.03;;
13421;SDS011;6782;55.904;13.396;2023-03-01T01:12:29;16.67;;;12.13;;
13421;SDS011;6782;55.904;13.396;2023-03-01T01:15:16;14.97;;;12.37;;
13421;SDS011;6782;55.904;13.396;2023-03-01T01:18:04;14.60;;;12.50;;
13421;SDS011;6782;55.904;13.396;2023-03-01T01:20:51;17.50;;;14.67;;
13421;SDS011;6782;55.904;13.396;2023-03-01T01:23:39;18.83;;;14.93;;
13421;SDS011;6782;55.904;13.396;2023-03-01T01:26:28;20.40;;;14.93;;
13421;SDS011;6782;55.904;13.396;2023-03-01T01:29:17;20.90;;;15.97;;
13421;SDS011;6782;55.904;13.396;2023-03-01T01:32:04;19.50;;;14.57;;
13421;SDS011;6782;55.904;13.396;2023-03-01T01:34:52;18.77;;;14.53;;
13421;SDS011;6782;55.904;13.396;2023-03-01T01:37:39;18.13;;;14.87;;
13421;SDS011;6782;55.904;13.396;2023-03-01T01:40:26;21.07;;;15.30;;
13421;SDS011;6782;55.904;13.396;2023-03-01T01:43:16;20.27;;;16.17;;
13421;SDS011;6782;55.904;13.396;2023-03-01T01:46:10;51.60;;;19.67;;
13421;SDS011;6782;55.904;13.396;2023-03-01T01:49:11;26.87;;;18.77;;
13421;SDS011;6782;55.904;13.396;2023-03-01T01:52:07;40.00;;;19.40;;
13421;SDS011;6782;55.904;13.396;2023-03-01T01:54:59;27.77;;;18.67;;
13421;SDS011;6782;55.904;13.396;2023-03-01T01:57:51;32.30;;;17.80;;
13421;SDS011;6782;55.904;13.396;2023-03-01T02:00:41;20.60;;;16.13;;
13421;SDS011;6782;55.904;13.396;2023-03-01T02:03:31;18.57;;;16.13;;
13421;SDS011;6782;55.904;13.396;2023-03-01T02:06:26;16.90;;;13.63;;
13421;SDS011;6782;55.904;13.396;2023-03-01T02:09:16;17.03;;;13.57;;
13421;SDS011;6782;55.904;13.396;2023-03-01T02:12:06;15.07;;;12.33;;
13421;SDS011;6782;55.904;13.396;2023-03-01T02:14:54;15.00;;;10.93;;
13421;SDS011;6782;55.904;13.396;2023-03-01T02:17:41;14.80;;;11.07;;
13421;SDS011;6782;55.904;13.396;2023-03-01T02:20:32;14.03;;;10.47;;
13421;SDS011;6782;55.904;13.396;2023-03-01T02:23:24;12.57;;;9.57;;
13421;SDS011;6782;55.904;13.396;2023-03-01T02:26:15;11.83;;;9.60;;
13421;SDS011;6782;55.904;13.396;2023-03-01T02:29:08;11.37;;;9.27;;
13421;SDS011;6782;55.904;13.396;2023-03-01T02:31:56;12.53;;;10.00;;
13421;SDS011;6782;55.904;13.396;2023-03-01T02:34:46;15.20;;;9.20;;
13421;SDS011;6782;55.904;13.396;2023-03-01T02:37:34;13.43;;;10.80;;
13421;SDS011;6782;55.904;13.396;2023-03-01T02:40:22;13.43;;;10.63;;
13421;SDS011;6782;55.904;13.396;2023-03-01T02:43:10;11.57;;;9.47;;
13421;SDS011;6782;55.904;13.396;2023-03-01T02:46:05;12.87;;;10.10;;
13421;SDS011;6782;55.904;13.396;2023-03-01T02:48:54;12.20;;;10.27;;
13421;SDS011;6782;55.904;13.396;2023-03-01T02:51:45;11.97;;;10.17;;
13421;SDS011;6782;55.904;13.396;2023-03-01T02:54:42;12.63;;;10.27;;
13421;SDS011;6782;55.904;13.396;2023-03-01T02:57:35;14.73;;;11.60;;
13421;SDS011;6782;55.904;13.396;2023-03-01T03:00:26;16.13;;;12.70;;
13421;SDS011;6782;55.904;13.396;2023-03-01T03:03:19;17.93;;;12.43;;
13421;SDS011;6782;55.904;13.396;2023-03-01T03:06:07;16.80;;;12.97;;
13421;SDS011;6782;55.904;13.396;2023-03-01T03:08:55;16.77;;;12.80;;
13421;SDS011;6782;55.904;13.396;2023-03-01T03:11:42;18.23;;;14.33;;
13421;SDS011;6782;55.904;13.396;2023-03-01T03:14:30;18.27;;;13.93;;
13421;SDS011;6782;55.904;13.396;2023-03-01T03:17:20;17.20;;;14.07;;
13421;SDS011;6782;55.904;13.396;2023-03-01T03:20:09;17.60;;;13.20;;
13421;SDS011;6782;55.904;13.396;2023-03-01T03:22:58;16.37;;;12.70;;
13421;SDS011;6782;55.904;13.396;2023-03-01T03:25:47;16.50;;;13.37;;
13421;SDS011;6782;55.904;13.396;2023-03-01T03:28:35;16.53;;;12.10;;
13421;SDS011;6782;55.904;13.396;2023-03-01T03:31:25;16.87;;;12.93;;
13421;SDS011;6782;55.904;13.396;2023-03-01T03:34:12;15.47;;;12.23;;
13421;SDS011;6782;55.904;13.396;2023-03-01T03:37:04;17.30;;;13.07;;
13421;SDS011;6782;55.904;13.396;2023-03-01T03:40:12;20.93;;;15.97;;
13421;SDS011;6782;55.904;13.396;2023-03-01T03:43:00;20.90;;;15.73;;
13421;SDS011;6782;55.904;13.396;2023-03-01T03:45:48;23.07;;;15.53;;
13421;SDS011;6782;55.904;13.396;2023-03-01T03:48:37;20.33;;;15.00;;
13421;SDS011;6782;55.904;13.396;2023-03-01T03:51:26;19.93;;;15.53;;
13421;SDS011;6782;55.904;13.396;2023-03-01T03:54:14;20.30;;;15.50;;
13421;SDS011;6782;55.904;13.396;2023-03-01T03:57:02;19.67;;;15.37;;
13421;SDS011;6782;55.904;13.396;2023-03-01T03:59:49;20.47;;;15.77;;
13421;SDS011;6782;55.904;13.396;2023-03-01T04:02:36;18.33;;;14.83;;
13421;SDS011;6782;55.904;13.396;2023-03-01T04:05:23;18.37;;;15.77;;
13421;SDS011;6782;55.904;13.396;2023-03-01T04:08:12;20.10;;;15.67;;
13421;SDS011;6782;55.904;13.396;2023-03-01T04:11:02;19.17;;;14.33;;
13421;SDS011;6782;55.904;13.396;2023-03-01T04:14:04;18.17;;;14.27;;
13421;SDS011;6782;55.904;13.396;2023-03-01T04:16:51;16.67;;;14.07;;
13421;SDS011;6782;55.904;13.396;2023-03-01T04:19:38;17.53;;;15.17;;
13421;SDS011;6782;55.904;13.396;2023-03-01T04:22:29;15.60;;;13.93;;
13421;SDS011;6782;55.904;13.396;2023-03-01T04:25:17;18.27;;;14.47;;
13421;SDS011;6782;55.904;13.396;2023-03-01T04:28:06;16.90;;;14.27;;
13421;SDS011;6782;55.904;13.396;2023-03-01T04:30:54;17.90;;;14.53;;
13421;SDS011;6782;55.904;13.396;2023-03-01T04:33:44;18.13;;;15.70;;
13421;SDS011;6782;55.904;13.396;2023-03-01T04:36:32;16.77;;;14.20;;
13421;SDS011;6782;55.904;13.396;2023-03-01T04:39:20;18.00;;;15.20;;
13421;SDS011;6782;55.904;13.396;2023-03-01T04:42:07;19.60;;;15.73;;
13421;SDS011;6782;55.904;13.396;2023-03-01T04:44:57;16.83;;;14.13;;
13421;SDS011;6782;55.904;13.396;2023-03-01T04:47:45;20.27;;;14.97;;
13421;SDS011;6782;55.904;13.396;2023-03-01T04:50:32;17.77;;;15.03;;
13421;SDS011;6782;55.904;13.396;2023-03-01T04:53:20;19.37;;;14.80;;
13421;SDS011;6782;55.904;13.396;2023-03-01T04:56:07;19.17;;;15.37;;
13421;SDS011;6782;55.904;13.396;2023-03-01T04:58:54;17.20;;;14.53;;
13421;SDS011;6782;55.904;13.396;2023-03-01T05:01:43;18.10;;;14.50;;
13421;SDS011;6782;55.904;13.396;2023-03-01T05:04:30;18.60;;;15.13;;
13421;SDS011;6782;55.904;13.396;2023-03-01T05:07:17;18.83;;;14.97;;
13421;SDS011;6782;55.904;13.396;2023-03-01T05:10:05;19.33;;;14.63;;
13421;SDS011;6782;55.904;13.396;2023-03-01T05:12:52;19.97;;;15.63;;
13421;SDS011;6782;55.904;13.396;2023-03-01T05:15:39;20.07;;;16.07;;
13421;SDS011;6782;55.904;13.396;2023-03-01T05:18:31;18.97;;;14.23;;
13421;SDS011;6782;55.904;13.396;2023-03-01T05:21:19;20.73;;;15.53;;
13421;SDS011;6782;55.904;13.396;2023-03-01T05:24:06;19.73;;;14.70;;
13421;SDS011;6782;55.904;13.396;2023-03-01T05:26:57;20.30;;;14.33;;
13421;SDS011;6782;55.904;13.396;2023-03-01T05:29:45;18.33;;;14.03;;
13421;SDS011;6782;55.904;13.396;2023-03-01T05:32:32;18.03;;;14.97;;
13421;SDS011;6782;55.904;13.396;2023-03-01T05:35:21;16.90;;;11.97;;
13421;SDS011;6782;55.904;13.396;2023-03-01T05:38:08;14.43;;;12.40;;
13421;SDS011;6782;55.904;13.396;2023-03-01T05:40:58;16.60;;;10.70;;
13421;SDS011;6782;55.904;13.396;2023-03-01T05:43:45;16.73;;;11.60;;
13421;SDS011;6782;55.904;13.396;2023-03-01T05:46:32;17.87;;;11.70;;
13421;SDS011;6782;55.904;13.396;2023-03-01T05:49:19;15.07;;;12.03;;
13421;SDS011;6782;55.904;13.396;2023-03-01T05:52:10;15.83;;;11.67;;
13421;SDS011;6782;55.904;13.396;2023-03-01T05:54:57;16.53;;;12.70;;
13421;SDS011;6782;55.904;13.396;2023-03-01T05:57:45;16.60;;;12.27;;
13421;SDS011;6782;55.904;13.396;2023-03-01T06:00:33;15.83;;;12.37;;
13421;SDS011;6782;55.904;13.396;2023-03-01T06:03:20;16.60;;;12.10;;
13421;SDS011;6782;55.904;13.396;2023-03-01T06:06:07;20.13;;;13.47;;
13421;SDS011;6782;55.904;13.396;2023-03-01T06:08:56;18.10;;;13.50;;
13421;SDS011;6782;55.904;13.396;2023-03-01T06:11:43;18.53;;;12.40;;
13421;SDS011;6782;55.904;13.396;2023-03-01T06:14:31;17.67;;;12.67;;
13421;SDS011;6782;55.904;13.396;2023-03-01T06:17:18;15.73;;;11.97;;
13421;SDS011;6782;55.904;13.396;2023-03-01T06:20:06;27.43;;;12.67;;
13421;SDS011;6782;55.904;13.396;2023-03-01T06:22:56;17.77;;;12.73;;
13421;SDS011;6782;55.904;13.396;2023-03-01T06:25:45;17.43;;;12.77;;
13421;SDS011;6782;55.904;13.396;2023-03-01T06:28:32;18.63;;;11.87;;
13421;SDS011;6782;55.904;13.396;2023-03-01T06:31:19;17.00;;;10.80;;
13421;SDS011;6782;55.904;13.396;2023-03-01T06:34:06;13.70;;;11.10;;
13421;SDS011;6782;55.904;13.396;2023-03-01T06:36:53;15.10;;;11.03;;
13421;SDS011;6782;55.904;13.396;2023-03-01T06:39:40;15.27;;;11.30;;
13421;SDS011;6782;55.904;13.396;2023-03-01T06:42:29;13.47;;;9.60;;
13421;SDS011;6782;55.904;13.396;2023-03-01T06:45:17;15.77;;;11.83;;
13421;SDS011;6782;55.904;13.396;2023-03-01T06:48:06;16.87;;;9.93;;
13421;SDS011;6782;55.904;13.396;2023-03-01T06:50:53;14.40;;;10.83;;
13421;SDS011;6782;55.904;13.396;2023-03-01T06:53:40;15.43;;;10.93;;
13421;SDS011;6782;55.904;13.396;2023-03-01T06:56:27;13.87;;;10.53;;
13421;SDS011;6782;55.904;13.396;2023-03-01T06:59:17;13.77;;;10.50;;
13421;SDS011;6782;55.904;13.396;2023-03-01T07:02:04;13.60;;;10.33;;
13421;SDS011;6782;55.904;13.396;2023-03-01T07:04:52;14.70;;;10.57;;
13421;SDS011;6782;55.904;13.396;2023-03-01T07:07:39;14.93;;;10.87;;
13421;SDS011;6782;55.904;13.396;2023-03-01T07:10:26;15.43;;;10.80;;
13421;SDS011;6782;55.904;13.396;2023-03-01T07:13:14;15.67;;;10.50;;
13421;SDS011;6782;55.904;13.396;2023-03-01T07:16:02;15.07;;;10.80;;
13421;SDS011;6782;55.904;13.396;2023-03-01T07:18:50;14.07;;;10.07;;
13421;SDS011;6782;55.904;13.396;2023-03-01T07:21:37;15.27;;;10.60;;
13421;SDS011;6782;55.904;13.396;2023-03-01T07:24:25;14.37;;;10.40;;
13421;SDS011;6782;55.904;13.396;2023-03-01T07:27:12;14.20;;;10.47;;
13421;SDS011;6782;55.904;13.396;2023-03-01T07:29:59;16.70;;;11.67;;
13421;SDS011;6782;55.904;13.396;2023-03-01T07:32:48;15.67;;;11.47;;
13421;SDS011;6782;55.904;13.396;2023-03-01T07:35:35;18.30;;;11.37;;
13421;SDS011;6782;55.904;13.396;2023-03-01T07:38:22;15.37;;;11.00;;
13421;SDS011;6782;55.904;13.396;2023-03-01T07:41:09;16.33;;;10.73;;
13421;SDS011;6782;55.904;13.396;2023-03-01T07:43:56;16.23;;;10.63;;
13421;SDS011;6782;55.904;13.396;2023-03-01T07:46:43;18.30;;;11.17;;
13421;SDS011;6782;55.904;13.396;2023-03-01T07:49:32;15.30;;;10.50;;
13421;SDS011;6782;55.904;13.396;2023-03-01T07:52:19;16.00;;;10.23;;
13421;SDS011;6782;55.904;13.396;2023-03-01T07:55:06;14.10;;;10.33;;
13421;SDS011;6782;55.904;13.396;2023-03-01T07:57:54;15.17;;;10.63;;
13421;SDS011;6782;55.904;13.396;2023-03-01T08:00:41;15.43;;;11.37;;
13421;SDS011;6782;55.904;13.396;2023-03-01T08:03:28;16.70;;;10.43;;
13421;SDS011;6782;55.904;13.396;2023-03-01T08:06:17;16.20;;;11.37;;
13421;SDS011;6782;55.904;13.396;2023-03-01T08:09:04;17.67;;;12.77;;
13421;SDS011;6782;55.904;13.396;2023-03-01T08:11:53;18.50;;;12.20;;
13421;SDS011;6782;55.904;13.396;2023-03-01T08:14:40;17.03;;;11.70;;
13421;SDS011;6782;55.904;13.396;2023-03-01T08:17:28;15.57;;;11.77;;
13421;SDS011;6782;55.904;13.396;2023-03-01T08:20:15;15.67;;;11.30;;
13421;SDS011;6782;55.904;13.396;2023-03-01T08:23:04;15.70;;;11.50;;
13421;SDS011;6782;55.904;13.396;2023-03-01T08:25:51;15.30;;;11.53;;
13421;SDS011;6782;55.904;13.396;2023-03-01T08:28:38;14.67;;;10.67;;
13421;SDS011;6782;55.904;13.396;2023-03-01T08:31:27;16.97;;;12.03;;
13421;SDS011;6782;55.904;13.396;2023-03-01T08:34:16;14.43;;;11.40;;
13421;SDS011;6782;55.904;13.396;2023-03-01T08:37:05;14.83;;;10.63;;
13421;SDS011;6782;55.904;13.396;2023-03-01T08:39:53;13.27;;;11.17;;
13421;SDS011;6782;55.904;13.396;2023-03-01T08:42:41;14.30;;;11.50;;
13421;SDS011;6782;55.904;13.396;2023-03-01T08:45:29;12.37;;;9.93;;
13421;SDS011;6782;55.904;13.396;2023-03-01T08:48:16;13.23;;;9.87;;
13421;SDS011;6782;55.904;13.396;2023-03-01T08:51:06;15.40;;;10.70;;
13421;SDS011;6782;55.904;13.396;2023-03-01T08:53:54;13.10;;;10.23;;
13421;SDS011;6782;55.904;13.396;2023-03-01T08:56:43;14.37;;;10.77;;
13421;SDS011;6782;55.904;13.396;2023-03-01T08:59:31;11.80;;;9.53;;
13421;SDS011;6782;55.904;13.396;2023-03-01T09:02:22;12.37;;;9.20;;
13421;SDS011;6782;55.904;13.396;2023-03-01T09:05:09;10.33;;;9.13;;
13421;SDS011;6782;55.904;13.396;2023-03-01T09:07:56;10.80;;;8.60;;
13421;SDS011;6782;55.904;13.396;2023-03-01T09:10:44;10.63;;;9.13;;
13421;SDS011;6782;55.904;13.396;2023-03-01T09:13:33;10.33;;;8.33;;
13421;SDS011;6782;55.904;13.396;2023-03-01T09:16:20;8.60;;;7.60;;
13421;SDS011;6782;55.904;13.396;2023-03-01T09:19:09;8.60;;;7.70;;
13421;SDS011;6782;55.904;13.396;2023-03-01T09:21:56;9.40;;;7.93;;
13421;SDS011;6782;55.904;13.396;2023-03-01T09:24:43;8.57;;;7.37;;
13421;SDS011;6782;55.904;13.396;2023-03-01T09:27:31;7.57;;;6.77;;
13421;SDS011;6782;55.904;13.396;2023-03-01T09:30:20;8.30;;;7.27;;
13421;SDS011;6782;55.904;13.396;2023-03-01T09:33:09;7.57;;;6.87;;
13421;SDS011;6782;55.904;13.396;2023-03-01T09:36:00;9.27;;;7.13;;
13421;SDS011;6782;55.904;13.396;2023-03-01T09:38:49;9.80;;;7.20;;
13421;SDS011;6782;55.904;13.396;2023-03-01T09:41:42;6.73;;;6.07;;
13421;SDS011;6782;55.904;13.396;2023-03-01T09:44:34;7.53;;;6.73;;
13421;SDS011;6782;55.904;13.396;2023-03-01T09:47:28;9.50;;;6.70;;
13421;SDS011;6782;55.904;13.396;2023-03-01T09:50:17;7.30;;;6.60;;
13421;SDS011;6782;55.904;13.396;2023-03-01T09:53:06;6.13;;;5.53;;
13421;SDS011;6782;55.904;13.396;2023-03-01T09:55:59;7.30;;;6.20;;
13421;SDS011;6782;55.904;13.396;2023-03-01T09:58:49;7.60;;;5.70;;
13421;SDS011;6782;55.904;13.396;2023-03-01T10:01:40;6.87;;;6.10;;
13421;SDS011;6782;55.904;13.396;2023-03-01T10:04:40;6.33;;;5.73;;
13421;SDS011;6782;55.904;13.396;2023-03-01T10:07:32;5.90;;;5.30;;
13421;SDS011;6782;55.904;13.396;2023-03-01T10:10:31;6.27;;;5.03;;
13421;SDS011;6782;55.904;13.396;2023-03-01T10:13:21;5.57;;;4.73;;
13421;SDS011;6782;55.904;13.396;2023-03-01T10:16:13;4.57;;;4.13;;
13421;SDS011;6782;55.904;13.396;2023-03-01T10:19:06;5.93;;;4.40;;
13421;SDS011;6782;55.904;13.396;2023-03-01T10:22:03;5.00;;;4.47;;
13421;SDS011;6782;55.904;13.396;2023-03-01T10:24:58;4.80;;;4.40;;
13421;SDS011;6782;55.904;13.396;2023-03-01T10:27:49;4.40;;;4.00;;
13421;SDS011;6782;55.904;13.396;2023-03-01T10:30:39;4.30;;;3.80;;
13421;SDS011;6782;55.904;13.396;2023-03-01T10:33:30;4.23;;;3.87;;
13421;SDS011;6782;55.904;13.396;2023-03-01T10:36:19;4.43;;;4.03;;
13421;SDS011;6782;55.904;13.396;2023-03-01T10:39:12;4.33;;;3.63;;
13421;SDS011;6782;55.904;13.396;2023-03-01T10:42:03;4.13;;;3.40;;
13421;SDS011;6782;55.904;13.396;2023-03-01T10:44:52;3.63;;;3.33;;
13421;SDS011;6782;55.904;13.396;2023-03-01T10:47:40;3.53;;;3.23;;
13421;SDS011;6782;55.904;13.396;2023-03-01T10:50:27;3.47;;;3.17;;
13421;SDS011;6782;55.904;13.396;2023-03-01T10:53:24;4.43;;;3.03;;
13421;SDS011;6782;55.904;13.396;2023-03-01T10:56:16;3.23;;;2.93;;
13421;SDS011;6782;55.904;13.396;2023-03-01T10:59:03;2.20;;;2.00;;
13421;SDS011;6782;55.904;13.396;2023-03-01T11:02:04;2.83;;;2.23;;
13421;SDS011;6782;55.904;13.396;2023-03-01T11:05:03;3.37;;;2.50;;
13421;SDS011;6782;55.904;13.396;2023-03-01T11:08:04;3.30;;;2.10;;
13421;SDS011;6782;55.904;13.396;2023-03-01T11:10:51;2.20;;;1.80;;
13421;SDS011;6782;55.904;13.396;2023-03-01T11:13:57;1.60;;;1.40;;
13421;SDS011;6782;55.904;13.396;2023-03-01T11:16:47;1.70;;;1.17;;
13421;SDS011;6782;55.904;13.396;2023-03-01T11:19:35;1.17;;;1.07;;
13421;SDS011;6782;55.904;13.396;2023-03-01T11:22:23;1.30;;;1.20;;
13421;SDS011;6782;55.904;13.396;2023-03-01T11:25:11;1.30;;;1.20;;
13421;SDS011;6782;55.904;13.396;2023-03-01T11:28:00;2.03;;;1.50;;
13421;SDS011;6782;55.904;13.396;2023-03-01T11:30:53;1.50;;;1.40;;
13421;SDS011;6782;55.904;13.396;2023-03-01T11:33:44;1.40;;;1.30;;
13421;SDS011;6782;55.904;13.396;2023-03-01T11:36:39;1.30;;;1.20;;
13421;SDS011;6782;55.904;13.396;2023-03-01T11:39:32;4.50;;;1.70;;
13421;SDS011;6782;55.904;13.396;2023-03-01T11:42:28;1.70;;;1.20;;
13421;SDS011;6782;55.904;13.396;2023-03-01T11:45:25;1.43;;;1.33;;
13421;SDS011;6782;55.904;13.396;2023-03-01T11:48:29;2.03;;;1.30;;
13421;SDS011;6782;55.904;13.396;2023-03-01T11:51:32;1.10;;;1.00;;
13421;SDS011;6782;55.904;13.396;2023-03-01T11:54:31;2.83;;;1.30;;
13421;SDS011;6782;55.904;13.396;2023-03-01T11:57:34;1.37;;;1.20;;
13421;SDS011;6782;55.904;13.396;2023-03-01T12:00:36;1.13;;;1.03;;
13421;SDS011;6782;55.904;13.396;2023-03-01T12:03:36;1.30;;;1.10;;
13421;SDS011;6782;55.904;13.396;2023-03-01T12:06:46;2.40;;;1.10;;
13421;SDS011;6782;55.904;13.396;2023-03-01T12:09:44;5.43;;;1.67;;
13421;SDS011;6782;55.904;13.396;2023-03-01T12:12:43;1.03;;;0.87;;
13421;SDS011;6782;55.904;13.396;2023-03-01T12:15:46;1.20;;;1.10;;
13421;SDS011;6782;55.904;13.396;2023-03-01T12:22:06;1.20;;;1.10;;
13421;SDS011;6782;55.904;13.396;2023-03-01T12:25:13;10.17;;;2.07;;
13421;SDS011;6782;55.904;13.396;2023-03-01T12:28:11;1.03;;;1.00;;
13421;SDS011;6782;55.904;13.396;2023-03-01T12:31:31;3.57;;;1.40;;
13421;SDS011;6782;55.904;13.396;2023-03-01T12:34:37;1.70;;;1.17;;
13421;SDS011;6782;55.904;13.396;2023-03-01T12:37:42;1.27;;;1.17;;
13421;SDS011;6782;55.904;13.396;2023-03-01T12:40:45;1.20;;;1.10;;
13421;SDS011;6782;55.904;13.396;2023-03-01T12:44:06;1.30;;;1.20;;
13421;SDS011;6782;55.904;13.396;2023-03-01T12:47:05;1.50;;;1.40;;
13421;SDS011;6782;55.904;13.396;2023-03-01T12:50:04;0.83;;;0.83;;
13421;SDS011;6782;55.904;13.396;2023-03-01T12:52:58;1.37;;;1.27;;
13421;SDS011;6782;55.904;13.396;2023-03-01T12:55:45;1.20;;;1.10;;
13421;SDS011;6782;55.904;13.396;2023-03-01T12:58:34;2.27;;;1.00;;
13421;SDS011;6782;55.904;13.396;2023-03-01T13:01:31;1.70;;;1.07;;
13421;SDS011;6782;55.904;13.396;2023-03-01T13:04:30;3.47;;;1.27;;
13421;SDS011;6782;55.904;13.396;2023-03-01T13:07:30;1.33;;;1.00;;
13421;SDS011;6782;55.904;13.396;2023-03-01T13:10:26;1.30;;;1.00;;
13421;SDS011;6782;55.904;13.396;2023-03-01T13:13:20;1.90;;;1.20;;
13421;SDS011;6782;55.904;13.396;2023-03-01T13:19:28;1.73;;;1.27;;
13421;SDS011;6782;55.904;13.396;2023-03-01T13:22:27;5.77;;;1.53;;
13421;SDS011;6782;55.904;13.396;2023-03-01T13:25:19;1.20;;;1.13;;
13421;SDS011;6782;55.904;13.396;2023-03-01T13:34:51;1.30;;;1.20;;
13421;SDS011;6782;55.904;13.396;2023-03-01T13:37:41;1.53;;;1.10;;
13421;SDS011;6782;55.904;13.396;2023-03-01T13:43:46;2.63;;;1.30;;
13421;SDS011;6782;55.904;13.396;2023-03-01T13:46:34;1.80;;;1.10;;
13421;SDS011;6782;55.904;13.396;2023-03-01T13:49:23;1.30;;;1.20;;
13421;SDS011;6782;55.904;13.396;2023-03-01T13:52:24;2.43;;;1.10;;
13421;SDS011;6782;55.904;13.396;2023-03-01T13:55:24;1.30;;;0.87;;
13421;SDS011;6782;55.904;13.396;2023-03-01T13:58:19;1.00;;;0.90;;
13421;SDS011;6782;55.904;13.396;2023-03-01T14:01:20;1.47;;;0.90;;
13421;SDS011;6782;55.904;13.396;2023-03-01T14:04:19;1.20;;;0.90;;
13421;SDS011;6782;55.904;13.396;2023-03-01T14:07:09;1.00;;;0.90;;
13421;SDS011;6782;55.904;13.396;2023-03-01T14:09:58;1.57;;;1.00;;
13421;SDS011;6782;55.904;13.396;2023-03-01T14:12:50;1.40;;;1.00;;
13421;SDS011;6782;55.904;13.396;2023-03-01T14:15:42;7.83;;;1.60;;
13421;SDS011;6782;55.904;13.396;2023-03-01T14:18:39;2.37;;;1.00;;
13421;SDS011;6782;55.904;13.396;2023-03-01T14:21:34;1.00;;;0.80;;
13421;SDS011;6782;55.904;13.396;2023-03-01T14:24:23;3.30;;;1.40;;
13421;SDS011;6782;55.904;13.396;2023-03-01T14:27:11;1.13;;;0.90;;
13421;SDS011;6782;55.904;13.396;2023-03-01T14:30:01;3.70;;;1.10;;
13421;SDS011;6782;55.904;13.396;2023-03-01T14:32:53;1.43;;;1.20;;
13421;SDS011;6782;55.904;13.396;2023-03-01T14:35:41;4.67;;;1.50;;
13421;SDS011;6782;55.904;13.396;2023-03-01T14:38:30;8.87;;;1.60;;
13421;SDS011;6782;55.904;13.396;2023-03-01T14:41:21;0.83;;;0.83;;
13421;SDS011;6782;55.904;13.396;2023-03-01T14:44:12;0.97;;;0.70;;
13421;SDS011;6782;55.904;13.396;2023-03-01T14:47:05;1.17;;;0.90;;
13421;SDS011;6782;55.904;13.396;2023-03-01T14:49:54;1.37;;;0.90;;
13421;SDS011;6782;55.904;13.396;2023-03-01T14:52:46;1.20;;;0.70;;
13421;SDS011;6782;55.904;13.396;2023-03-01T14:55:35;1.43;;;0.90;;
13421;SDS011;6782;55.904;13.396;2023-03-01T14:58:26;1.60;;;0.80;;
13421;SDS011;6782;55.904;13.396;2023-03-01T15:01:13;0.93;;;0.80;;
13421;SDS011;6782;55.904;13.396;2023-03-01T15:04:05;2.00;;;0.80;;
13421;SDS011;6782;55.904;13.396;2023-03-01T15:06:52;0.90;;;0.90;;
13421;SDS011;6782;55.904;13.396;2023-03-01T15:09:41;2.03;;;0.80;;
13421;SDS011;6782;55.904;13.396;2023-03-01T15:12:35;1.03;;;0.90;;
13421;SDS011;6782;55.904;13.396;2023-03-01T15:15:31;1.17;;;0.93;;
13421;SDS011;6782;55.904;13.396;2023-03-01T15:18:21;4.40;;;1.20;;
13421;SDS011;6782;55.904;13.396;2023-03-01T15:21:17;2.80;;;1.20;;
13421;SDS011;6782;55.904;13.396;2023-03-01T15:24:16;1.67;;;1.10;;
13421;SDS011;6782;55.904;13.396;2023-03-01T15:27:12;1.67;;;1.00;;
13421;SDS011;6782;55.904;13.396;2023-03-01T15:30:04;4.53;;;1.23;;
13421;SDS011;6782;55.904;13.396;2023-03-01T15:39:37;1.50;;;1.13;;
13421;SDS011;6782;55.904;13.396;2023-03-01T15:42:37;1.27;;;1.17;;
13421;SDS011;6782;55.904;13.396;2023-03-01T15:45:25;2.83;;;1.00;;
13421;SDS011;6782;55.904;13.396;2023-03-01T15:48:17;2.90;;;1.50;;
13421;SDS011;6782;55.904;13.396;2023-03-01T15:51:09;1.80;;;1.43;;
13421;SDS011;6782;55.904;13.396;2023-03-01T15:54:03;1.10;;;1.00;;
13421;SDS011;6782;55.904;13.396;2023-03-01T15:56:52;2.63;;;1.03;;
13421;SDS011;6782;55.904;13.396;2023-03-01T15:59:40;1.07;;;1.00;;
13421;SDS011;6782;55.904;13.396;2023-03-01T16:02:29;1.73;;;1.10;;
13421;SDS011;6782;55.904;13.396;2023-03-01T16:05:18;3.03;;;1.27;;
13421;SDS011;6782;55.904;13.396;2023-03-01T16:08:08;1.77;;;1.10;;
13421;SDS011;6782;55.904;13.396;2023-03-01T16:10:56;3.53;;;1.70;;
13421;SDS011;6782;55.904;13.396;2023-03-01T16:13:44;4.13;;;1.60;;
13421;SDS011;6782;55.904;13.396;2023-03-01T16:16:31;3.03;;;1.43;;
13421;SDS011;6782;55.904;13.396;2023-03-01T16:19:19;2.80;;;1.80;;
13421;SDS011;6782;55.904;13.396;2023-03-01T16:22:06;1.97;;;1.70;;
13421;SDS011;6782;55.904;13.396;2023-03-01T16:24:54;2.10;;;1.87;;
13421;SDS011;6782;55.904;13.396;2023-03-01T16:27:43;1.50;;;1.40;;
13421;SDS011;6782;55.904;13.396;2023-03-01T16:30:31;2.03;;;1.90;;
13421;SDS011;6782;55.904;13.396;2023-03-01T16:33:19;2.90;;;2.17;;
13421;SDS011;6782;55.904;13.396;2023-03-01T16:36:06;2.23;;;2.00;;
13421;SDS011;6782;55.904;13.396;2023-03-01T16:38:55;3.87;;;2.50;;
13421;SDS011;6782;55.904;13.396;2023-03-01T16:41:28;3.97;;;2.30;;
13421;SDS011;6782;55.904;13.396;2023-03-01T16:43:57;4.60;;;2.70;;
13421;SDS011;6782;55.904;13.396;2023-03-01T16:46:25;4.20;;;2.37;;
13421;SDS011;6782;55.904;13.396;2023-03-01T16:48:54;4.90;;;2.40;;
13421;SDS011;6782;55.904;13.396;2023-03-01T16:51:21;6.03;;;2.70;;
13421;SDS011;6782;55.904;13.396;2023-03-01T16:53:50;2.83;;;2.40;;
13421;SDS011;6782;55.904;13.396;2023-03-01T16:56:18;3.47;;;2.37;;
13421;SDS011;6782;55.904;13.396;2023-03-01T16:58:45;4.30;;;2.60;;
13421;SDS011;6782;55.904;13.396;2023-03-01T17:01:15;3.50;;;2.30;;
13421;SDS011;6782;55.904;13.396;2023-03-01T17:03:43;3.20;;;2.50;;
13421;SDS011;6782;55.904;13.396;2023-03-01T17:06:15;3.00;;;2.30;;
13421;SDS011;6782;55.904;13.396;2023-03-01T17:08:45;3.57;;;2.40;;
13421;SDS011;6782;55.904;13.396;2023-03-01T17:11:13;5.53;;;2.50;;